This is the latest recevied weather packets stored in our database for station/object OH6NMY. If no packets are shown the sender has not sent any weather packets the latest 10 day(s).
| Time | Temp. | Humidity | Pressure | Rain* | Wind** | Luminosity | Snow |
|---|---|---|---|---|---|---|---|
| 1777073913 | 2.22° C | 89% | 996.8 hPa | 0 mm | - | - | - |
| 1777072833 | 2.22° C | 90% | 997.4 hPa | 0 mm | - | - | - |
| 1777070133 | 1.67° C | 93% | 998.3 hPa | 0 mm | - | - | - |
| 1777068105 | 2.22° C | 93% | 999.3 hPa | 0 mm | - | - | - |
| 1777066353 | 2.22° C | 93% | 999.9 hPa | 0 mm | - | - | - |
| 1777060547 | 3.33° C | 84% | 1002.9 hPa | 0 mm | - | - | - |
| 1777058793 | 3.89° C | 76% | 1003.3 hPa | 0 mm | - | - | - |
| 1777056093 | 5° C | 62% | 1003.6 hPa | 0 mm | - | - | - |
| 1777055013 | 5° C | 58% | 1004 hPa | 0 mm | - | - | - |
| 1777052853 | 5.56° C | 54% | 1004.5 hPa | 0 mm | - | - | - |
| 1777049613 | 5.56° C | 52% | 1005.3 hPa | 0 mm | - | - | - |
| 1777047584 | 6.11° C | 48% | 1005.9 hPa | 0 mm | - | - | - |
| 1777041644 | 6.67° C | 44% | 1007.2 hPa | 0 mm | - | - | - |
| 1777031253 | 6.67° C | 43% | 1008.7 hPa | 0 mm | - | - | - |
| 1777029223 | 5.56° C | 49% | 1009.2 hPa | 0 mm | - | - | - |
| 1777025987 | 6.11° C | 48% | 1009.7 hPa | 0 mm | - | - | - |
| 1777025313 | 5.56° C | 48% | 1009.3 hPa | 0 mm | - | - | - |
| 1777021533 | 5.56° C | 54% | 1009.7 hPa | 0 mm | - | - | - |
| 1777019373 | 5° C | 53% | 1009.6 hPa | 0 mm | - | - | - |
| 1777018833 | 4.44° C | 52% | 1009.8 hPa | 0 mm | - | - | - |
| 1777016264 | 4.44° C | 56% | 1009.6 hPa | 0 mm | - | - | - |
| 1777009113 | 3.89° C | 58% | 1009.5 hPa | 0 mm | - | - | - |
| 1777005873 | 2.78° C | 71% | 1009.5 hPa | 0 mm | - | - | - |
| 1777004793 | 2.78° C | 73% | 1009.1 hPa | 0 mm | - | - | - |
| 1777004253 | 2.78° C | 75% | 1008.9 hPa | 0 mm | - | - | - |
* Rain latest hour (hover to see other rain measurements)
** Current wind speed in m/s (hover to see current wind gust speed)